Time,TemperatureF,DewpointF,PressureIn,WindDirection,WindDirectionDegrees,WindSpeedMPH,WindSpeedGustMPH,Humidity,HourlyPrecipIn,Conditions,Clouds,dailyrainin,SoftwareType,DateUTC
2013-02-08 00:03:00,21.0,6.0,30.15,ESE,112,3.0,5.0,55,0.00,,,0.00,TxWx,2013-02-08 05:03:00,
2013-02-08 00:08:00,21.0,6.0,30.15,East,90,5.0,6.0,55,0.00,,,0.00,TxWx,2013-02-08 05:08:00,
2013-02-08 00:13:00,21.0,6.0,30.15,ESE,112,6.0,6.0,55,0.00,,,0.00,TxWx,2013-02-08 05:13:00,
2013-02-08 00:18:00,21.0,6.0,30.15,ESE,112,9.0,9.0,54,0.00,,,0.00,TxWx,2013-02-08 05:18:00,
2013-02-08 00:23:00,22.0,7.0,30.14,ESE,112,3.0,7.0,54,0.00,,,0.00,TxWx,2013-02-08 05:23:00,
2013-02-08 00:30:00,21.0,6.0,30.14,ESE,112,7.0,7.0,54,0.00,,,0.00,TxWx,2013-02-08 05:30:00,
2013-02-08 00:35:00,21.0,6.0,30.14,East,90,6.0,7.0,54,0.00,,,0.00,TxWx,2013-02-08 05:35:00,
2013-02-08 00:40:00,22.0,7.0,30.13,ESE,112,6.0,7.0,54,0.00,,,0.00,TxWx,2013-02-08 05:40:00,
2013-02-08 00:45:00,22.0,7.0,30.13,East,90,3.0,5.0,54,0.00,,,0.00,TxWx,2013-02-08 05:45:00,
2013-02-08 00:50:00,22.0,7.0,30.13,ESE,112,6.0,6.0,54,0.00,,,0.00,TxWx,2013-02-08 05:50:00,
2013-02-08 00:55:00,22.0,7.0,30.13,ESE,112,6.0,6.0,54,0.00,,,0.00,TxWx,2013-02-08 05:55:00,
2013-02-08 01:01:00,21.0,6.0,30.13,ESE,112,5.0,6.0,54,0.00,,,0.00,TxWx,2013-02-08 06:01:00,
2013-02-08 01:06:00,21.0,6.0,30.12,ESE,112,3.0,5.0,55,0.00,,,0.00,TxWx,2013-02-08 06:06:00,
2013-02-08 01:11:00,22.0,7.0,30.11,ESE,112,3.0,4.0,55,0.00,,,0.00,TxWx,2013-02-08 06:11:00,
2013-02-08 01:16:00,22.0,7.0,30.12,ENE,67,5.0,5.0,55,0.00,,,0.00,TxWx,2013-02-08 06:16:00,
2013-02-08 01:21:00,22.0,7.0,30.11,East,90,4.0,5.0,55,0.00,,,0.00,TxWx,2013-02-08 06:21:00,
2013-02-08 01:26:00,22.0,7.0,30.11,ESE,112,4.0,4.0,55,0.00,,,0.00,TxWx,2013-02-08 06:26:00,
2013-02-08 01:31:00,22.0,7.0,30.11,ENE,67,3.0,5.0,55,0.00,,,0.00,TxWx,2013-02-08 06:31:00,
2013-02-08 01:36:00,22.0,7.0,30.11,NE,45,3.0,4.0,55,0.00,,,0.00,TxWx,2013-02-08 06:36:00,
2013-02-08 01:41:00,22.0,7.0,30.11,ESE,112,6.0,6.0,55,0.00,,,0.00,TxWx,2013-02-08 06:41:00,
2013-02-08 01:46:00,22.0,7.0,30.11,ESE,112,5.0,6.0,55,0.00,,,0.00,TxWx,2013-02-08 06:46:00,
2013-02-08 01:51:00,22.0,7.0,30.11,ESE,112,6.0,8.0,55,0.00,,,0.00,TxWx,2013-02-08 06:51:00,
2013-02-08 01:56:00,22.0,7.0,30.10,ESE,112,5.0,6.0,55,0.00,,,0.00,TxWx,2013-02-08 06:56:00,
2013-02-08 02:01:00,23.0,8.0,30.10,NNE,22,3.0,3.0,55,0.00,,,0.00,TxWx,2013-02-08 07:01:00,
2013-02-08 02:06:00,23.0,8.0,30.09,ESE,112,6.0,8.0,54,0.00,,,0.00,TxWx,2013-02-08 07:06:00,
2013-02-08 02:12:00,23.0,8.0,30.10,SE,135,2.0,4.0,54,0.00,,,0.00,TxWx,2013-02-08 07:12:00,
2013-02-08 02:17:00,23.0,8.0,30.09,SE,135,3.0,5.0,54,0.00,,,0.00,TxWx,2013-02-08 07:17:00,
2013-02-08 02:22:00,23.0,8.0,30.09,SSE,157,4.0,5.0,55,0.00,,,0.00,TxWx,2013-02-08 07:22:00,
2013-02-08 02:27:00,23.0,8.0,30.08,ESE,112,8.0,9.0,55,0.00,,,0.00,TxWx,2013-02-08 07:27:00,
2013-02-08 02:32:00,23.0,8.0,30.08,East,90,5.0,5.0,55,0.00,,,0.00,TxWx,2013-02-08 07:32:00,
2013-02-08 02:37:00,23.0,8.0,30.08,ESE,112,3.0,5.0,55,0.00,,,0.00,TxWx,2013-02-08 07:37:00,
2013-02-08 02:42:00,23.0,8.0,30.07,ESE,112,3.0,5.0,55,0.00,,,0.00,TxWx,2013-02-08 07:42:00,
2013-02-08 02:47:00,23.0,8.0,30.07,SE,135,2.0,2.0,55,0.00,,,0.00,TxWx,2013-02-08 07:47:00,
2013-02-08 02:52:00,23.0,8.0,30.07,East,90,3.0,3.0,56,0.00,,,0.00,TxWx,2013-02-08 07:52:00,
2013-02-08 02:57:00,23.0,8.0,30.07,SE,135,0.0,1.0,56,0.00,,,0.00,TxWx,2013-02-08 07:57:00,
2013-02-08 03:02:00,23.0,9.0,30.06,SE,135,0.0,1.0,56,0.00,,,0.00,TxWx,2013-02-08 08:02:00,
2013-02-08 03:07:00,23.0,9.0,30.05,ESE,112,5.0,5.0,56,0.00,,,0.00,TxWx,2013-02-08 08:07:00,
2013-02-08 03:12:00,23.0,9.0,30.05,SE,135,3.0,3.0,56,0.00,,,0.00,TxWx,2013-02-08 08:12:00,
2013-02-08 03:17:00,23.0,9.0,30.05,ESE,112,2.0,3.0,57,0.00,,,0.00,TxWx,2013-02-08 08:17:00,
2013-02-08 03:22:00,23.0,9.0,30.04,SE,135,1.0,1.0,58,0.00,,,0.00,TxWx,2013-02-08 08:22:00,
2013-02-08 03:27:00,23.0,9.0,30.05,ESE,112,3.0,5.0,58,0.00,,,0.00,TxWx,2013-02-08 08:27:00,
2013-02-08 03:32:00,23.0,9.0,30.05,SSE,157,3.0,3.0,58,0.00,,,0.00,TxWx,2013-02-08 08:32:00,
2013-02-08 03:37:00,23.0,10.0,30.05,SSE,157,2.0,3.0,59,0.00,,,0.00,TxWx,2013-02-08 08:37:00,
2013-02-08 03:42:00,23.0,10.0,30.04,SE,135,1.0,1.0,59,0.00,,,0.00,TxWx,2013-02-08 08:42:00,
2013-02-08 03:47:00,23.0,10.0,30.04,SSE,157,1.0,3.0,59,0.00,,,0.00,TxWx,2013-02-08 08:47:00,
2013-02-08 03:52:00,23.0,10.0,30.04,SE,135,3.0,3.0,59,0.00,,,0.00,TxWx,2013-02-08 08:52:00,
2013-02-08 03:57:00,22.0,9.0,30.04,ESE,112,3.0,5.0,60,0.00,,,0.00,TxWx,2013-02-08 08:57:00,
2013-02-08 04:02:00,22.0,9.0,30.04,SSE,157,6.0,6.0,60,0.00,,,0.00,TxWx,2013-02-08 09:02:00,
2013-02-08 04:07:00,22.0,10.0,30.03,SE,135,4.0,5.0,62,0.00,,,0.00,TxWx,2013-02-08 09:07:00,
2013-02-08 04:12:00,22.0,10.0,30.03,ESE,112,3.0,5.0,63,0.00,,,0.00,TxWx,2013-02-08 09:12:00,
2013-02-08 04:18:00,21.0,9.0,30.03,ESE,112,4.0,4.0,63,0.00,,,0.00,TxWx,2013-02-08 09:18:00,
2013-02-08 04:23:00,21.0,10.0,30.03,SSE,157,5.0,5.0,64,0.00,,,0.00,TxWx,2013-02-08 09:23:00,
2013-02-08 04:28:00,21.0,10.0,30.03,SSE,157,5.0,5.0,65,0.00,,,0.00,TxWx,2013-02-08 09:28:00,
2013-02-08 04:33:00,20.0,10.0,30.03,SSE,157,4.0,5.0,65,0.00,,,0.00,TxWx,2013-02-08 09:33:00,
2013-02-08 04:38:00,20.0,9.0,30.03,SE,135,4.0,5.0,65,0.00,,,0.00,TxWx,2013-02-08 09:38:00,
2013-02-08 04:43:00,20.0,9.0,30.03,SE,135,5.0,5.0,65,0.00,,,0.00,TxWx,2013-02-08 09:43:00,
2013-02-08 04:48:00,20.0,9.0,30.03,SE,135,4.0,5.0,65,0.00,,,0.00,TxWx,2013-02-08 09:48:00,
2013-02-08 04:53:00,20.0,9.0,30.03,SE,135,3.0,4.0,66,0.00,,,0.00,TxWx,2013-02-08 09:53:00,
2013-02-08 04:58:00,20.0,9.0,30.03,SE,135,5.0,5.0,66,0.00,,,0.00,TxWx,2013-02-08 09:58:00,
2013-02-08 05:03:00,20.0,9.0,30.03,SSE,157,3.0,3.0,65,0.00,,,0.00,TxWx,2013-02-08 10:03:00,
2013-02-08 05:08:00,20.0,9.0,30.02,ESE,112,0.0,1.0,65,0.00,,,0.00,TxWx,2013-02-08 10:08:00,
2013-02-08 05:13:00,21.0,10.0,30.02,ESE,112,3.0,4.0,65,0.00,,,0.00,TxWx,2013-02-08 10:13:00,
2013-02-08 05:18:00,21.0,10.0,30.02,ESE,112,2.0,2.0,64,0.00,,,0.00,TxWx,2013-02-08 10:18:00,
2013-02-08 05:23:00,21.0,10.0,30.02,ESE,112,2.0,3.0,64,0.00,,,0.00,TxWx,2013-02-08 10:23:00,
2013-02-08 05:29:00,21.0,10.0,30.02,WNW,292,1.0,1.0,64,0.00,,,0.00,TxWx,2013-02-08 10:29:00,
2013-02-08 05:34:00,20.0,9.0,30.02,SSW,202,0.0,0.0,65,0.00,,,0.00,TxWx,2013-02-08 10:34:00,
2013-02-08 05:39:00,20.0,9.0,30.01,SSW,202,0.0,0.0,65,0.00,,,0.00,TxWx,2013-02-08 10:39:00,
2013-02-08 05:47:00,21.0,10.0,30.01,SSE,157,0.0,0.0,66,0.00,,,0.00,TxWx,2013-02-08 10:47:00,
2013-02-08 05:52:00,21.0,10.0,30.01,SSE,157,0.0,0.0,66,0.00,,,0.00,TxWx,2013-02-08 10:52:00,
2013-02-08 05:57:00,22.0,11.0,30.01,SSE,157,0.0,0.0,66,0.00,,,0.00,TxWx,2013-02-08 10:57:00,
2013-02-08 06:02:00,21.0,11.0,30.01,South,180,0.0,0.0,66,0.00,,,0.00,TxWx,2013-02-08 11:02:00,
2013-02-08 06:07:00,22.0,11.0,30.01,SSE,157,0.0,0.0,66,0.00,,,0.00,TxWx,2013-02-08 11:07:00,
2013-02-08 06:12:00,22.0,11.0,30.01,SSW,202,1.0,1.0,66,0.00,,,0.00,TxWx,2013-02-08 11:12:00,
2013-02-08 06:18:00,21.0,10.0,30.01,NNW,337,1.0,1.0,64,0.00,,,0.00,TxWx,2013-02-08 11:18:00,
2013-02-08 06:23:00,21.0,11.0,30.01,SSE,157,1.0,2.0,67,0.00,,,0.00,TxWx,2013-02-08 11:23:00,
2013-02-08 06:28:00,21.0,11.0,30.01,SSE,157,3.0,3.0,69,0.00,,,0.00,TxWx,2013-02-08 11:28:00,
2013-02-08 06:33:00,21.0,11.0,30.01,SSE,157,1.0,2.0,69,0.00,,,0.00,TxWx,2013-02-08 11:33:00,
2013-02-08 06:38:00,21.0,12.0,30.01,ESE,112,5.0,6.0,71,0.00,,,0.00,TxWx,2013-02-08 11:38:00,
2013-02-08 06:43:00,22.0,13.0,30.01,ESE,112,3.0,4.0,72,0.00,,,0.00,TxWx,2013-02-08 11:43:00,
2013-02-08 06:48:00,22.0,14.0,30.01,SSE,157,0.0,1.0,73,0.00,,,0.00,TxWx,2013-02-08 11:48:00,
2013-02-08 06:53:00,22.0,14.0,30.01,SSE,157,0.0,0.0,74,0.00,,,0.00,TxWx,2013-02-08 11:53:00,
2013-02-08 06:58:00,22.0,14.0,30.00,SSW,202,0.0,0.0,73,0.00,,,0.00,TxWx,2013-02-08 11:58:00,
2013-02-08 07:03:00,20.0,10.0,30.00,NNE,22,4.0,4.0,68,0.00,,,0.00,TxWx,2013-02-08 12:03:00,
2013-02-08 07:08:00,21.0,13.0,30.00,ESE,112,0.0,1.0,74,0.00,,,0.00,TxWx,2013-02-08 12:08:00,
2013-02-08 07:13:00,22.0,14.0,30.00,SE,135,1.0,2.0,76,0.00,,,0.00,TxWx,2013-02-08 12:13:00,
2013-02-08 07:18:00,22.0,15.0,30.00,ESE,112,3.0,3.0,77,0.00,,,0.00,TxWx,2013-02-08 12:18:00,
2013-02-08 07:24:00,22.0,15.0,30.00,ESE,112,1.0,3.0,77,0.00,,,0.00,TxWx,2013-02-08 12:24:00,
2013-02-08 07:29:00,22.0,15.0,29.99,SE,135,1.0,2.0,78,0.00,,,0.00,TxWx,2013-02-08 12:29:00,
2013-02-08 07:34:00,23.0,16.0,29.99,SE,135,0.0,0.0,77,0.00,,,0.00,TxWx,2013-02-08 12:34:00,
2013-02-08 07:39:00,22.0,14.0,29.99,NNE,22,3.0,4.0,75,0.00,,,0.00,TxWx,2013-02-08 12:39:00,
2013-02-08 07:44:00,21.0,12.0,29.99,NNE,22,3.0,5.0,71,0.00,,,0.00,TxWx,2013-02-08 12:44:00,
2013-02-08 07:49:00,20.0,11.0,29.99,NNE,22,3.0,4.0,71,0.00,,,0.00,TxWx,2013-02-08 12:49:00,
2013-02-08 07:54:00,20.0,12.0,29.99,NNW,337,3.0,5.0,73,0.00,,,0.00,TxWx,2013-02-08 12:54:00,
2013-02-08 07:59:00,20.0,12.0,29.99,NNW,337,6.0,6.0,73,0.00,,,0.00,TxWx,2013-02-08 12:59:00,
2013-02-08 08:04:00,21.0,13.0,29.99,NNW,337,5.0,6.0,73,0.00,,,0.00,TxWx,2013-02-08 13:04:00,
2013-02-08 08:09:00,21.0,13.0,30.00,North,0,2.0,3.0,73,0.00,,,0.00,TxWx,2013-02-08 13:09:00,
2013-02-08 08:14:00,21.0,13.0,29.99,North,0,3.0,5.0,73,0.00,,,0.00,TxWx,2013-02-08 13:14:00,
2013-02-08 08:19:00,21.0,13.0,29.99,North,0,5.0,5.0,74,0.00,,,0.00,TxWx,2013-02-08 13:19:00,
2013-02-08 08:24:00,21.0,13.0,29.99,NNW,337,4.0,5.0,74,0.00,,,0.00,TxWx,2013-02-08 13:24:00,
2013-02-08 08:30:00,21.0,13.0,29.98,North,0,3.0,3.0,74,0.00,,,0.00,TxWx,2013-02-08 13:30:00,
2013-02-08 08:35:00,21.0,13.0,29.98,NNE,22,4.0,5.0,75,0.00,,,0.00,TxWx,2013-02-08 13:35:00,
2013-02-08 08:40:00,21.0,13.0,29.98,NNE,22,4.0,5.0,75,0.00,,,0.00,TxWx,2013-02-08 13:40:00,
2013-02-08 08:45:00,21.0,14.0,29.98,North,0,3.0,5.0,76,0.00,,,0.00,TxWx,2013-02-08 13:45:00,
2013-02-08 08:50:00,21.0,14.0,29.97,NNW,337,4.0,5.0,76,0.00,,,0.00,TxWx,2013-02-08 13:50:00,
2013-02-08 08:55:00,21.0,14.0,29.97,North,0,3.0,5.0,77,0.00,,,0.00,TxWx,2013-02-08 13:55:00,
2013-02-08 09:00:00,21.0,14.0,29.97,NNW,337,4.0,4.0,78,0.00,,,0.00,TxWx,2013-02-08 14:00:00,
2013-02-08 09:05:00,21.0,15.0,29.96,NNE,22,3.0,3.0,79,0.00,,,0.00,TxWx,2013-02-08 14:05:00,
2013-02-08 09:10:00,21.0,15.0,29.96,North,0,3.0,4.0,80,0.00,,,0.00,TxWx,2013-02-08 14:10:00,
2013-02-08 09:15:00,21.0,15.0,29.96,NNE,22,3.0,3.0,80,0.00,,,0.00,TxWx,2013-02-08 14:15:00,
2013-02-08 09:20:00,21.0,15.0,29.97,NNW,337,3.0,3.0,79,0.00,,,0.00,TxWx,2013-02-08 14:20:00,
2013-02-08 09:25:00,21.0,15.0,29.97,NW,315,4.0,5.0,80,0.00,,,0.00,TxWx,2013-02-08 14:25:00,
2013-02-08 09:31:00,20.0,14.0,29.96,NNW,337,3.0,3.0,79,0.00,,,0.00,TxWx,2013-02-08 14:31:00,
2013-02-08 09:36:00,20.0,14.0,29.97,NNE,22,3.0,3.0,80,0.00,,,0.00,TxWx,2013-02-08 14:36:00,
2013-02-08 09:41:00,21.0,16.0,29.96,ENE,67,2.0,3.0,84,0.00,,,0.00,TxWx,2013-02-08 14:41:00,
2013-02-08 09:46:00,22.0,17.0,29.96,ENE,67,1.0,1.0,84,0.00,,,0.00,TxWx,2013-02-08 14:46:00,
2013-02-08 09:51:00,23.0,17.0,29.96,ESE,112,0.0,0.0,83,0.00,,,0.00,TxWx,2013-02-08 14:51:00,
2013-02-08 09:56:00,22.0,16.0,29.96,WNW,292,1.0,1.0,80,0.00,,,0.00,TxWx,2013-02-08 14:56:00,
2013-02-08 10:01:00,22.0,15.0,29.96,ENE,67,0.0,0.0,78,0.00,,,0.00,TxWx,2013-02-08 15:01:00,
2013-02-08 10:06:00,21.0,15.0,29.96,NW,315,1.0,1.0,79,0.00,,,0.00,TxWx,2013-02-08 15:06:00,
2013-02-08 10:11:00,20.0,14.0,29.96,North,0,1.0,1.0,79,0.00,,,0.00,TxWx,2013-02-08 15:11:00,
2013-02-08 10:16:00,18.0,12.0,29.96,NW,315,1.0,2.0,81,0.00,,,0.00,TxWx,2013-02-08 15:16:00,
2013-02-08 10:21:00,19.0,15.0,29.95,SSE,157,0.0,0.0,87,0.00,,,0.00,TxWx,2013-02-08 15:21:00,
2013-02-08 10:26:00,20.0,16.0,29.95,NNE,22,4.0,4.0,88,0.00,,,0.00,TxWx,2013-02-08 15:26:00,
2013-02-08 10:31:00,22.0,18.0,29.95,ENE,67,3.0,3.0,90,0.00,,,0.00,TxWx,2013-02-08 15:31:00,
2013-02-08 10:37:00,23.0,19.0,29.95,NNE,22,5.0,5.0,90,0.00,,,0.00,TxWx,2013-02-08 15:37:00,
2013-02-08 10:42:00,23.0,19.0,29.95,NNE,22,1.0,2.0,90,0.00,,,0.00,TxWx,2013-02-08 15:42:00,
2013-02-08 10:47:00,23.0,19.0,29.95,NNE,22,2.0,2.0,89,0.00,,,0.00,TxWx,2013-02-08 15:47:00,
2013-02-08 10:52:00,23.0,19.0,29.94,NNE,22,2.0,3.0,90,0.00,,,0.00,TxWx,2013-02-08 15:52:00,
2013-02-08 10:57:00,22.0,19.0,29.94,NNE,22,3.0,3.0,91,0.00,,,0.00,TxWx,2013-02-08 15:57:00,
2013-02-08 11:02:00,22.0,19.0,29.93,NNW,337,3.0,4.0,91,0.00,,,0.00,TxWx,2013-02-08 16:02:00,
2013-02-08 11:07:00,21.0,18.0,29.93,NNW,337,4.0,5.0,91,0.00,,,0.00,TxWx,2013-02-08 16:07:00,
2013-02-08 11:12:00,20.0,17.0,29.93,North,0,3.0,4.0,91,0.00,,,0.00,TxWx,2013-02-08 16:12:00,
2013-02-08 11:17:00,20.0,17.0,29.92,NNW,337,5.0,5.0,92,0.00,,,0.00,TxWx,2013-02-08 16:17:00,
2013-02-08 11:22:00,20.0,17.0,29.92,NNW,337,4.0,4.0,93,0.00,,,0.00,TxWx,2013-02-08 16:22:00,
2013-02-08 11:27:00,19.0,16.0,29.91,WNW,292,3.0,3.0,93,0.00,,,0.00,TxWx,2013-02-08 16:27:00,
2013-02-08 11:33:00,18.0,15.0,29.91,NW,315,3.0,3.0,93,0.00,,,0.00,TxWx,2013-02-08 16:33:00,
2013-02-08 11:38:00,19.0,17.0,29.90,North,0,3.0,5.0,94,0.00,,,0.00,TxWx,2013-02-08 16:38:00,
2013-02-08 11:43:00,19.0,17.0,29.90,North,0,5.0,5.0,95,0.00,,,0.00,TxWx,2013-02-08 16:43:00,
2013-02-08 11:48:00,19.0,17.0,29.90,NW,315,4.0,5.0,95,0.00,,,0.00,TxWx,2013-02-08 16:48:00,
2013-02-08 11:53:00,19.0,17.0,29.89,NNW,337,3.0,4.0,95,0.00,,,0.00,TxWx,2013-02-08 16:53:00,
2013-02-08 11:58:00,20.0,18.0,29.89,NNE,22,9.0,10.0,97,0.00,,,0.00,TxWx,2013-02-08 16:58:00,
2013-02-08 12:03:00,21.0,19.0,29.88,North,0,5.0,5.0,96,0.00,,,0.00,TxWx,2013-02-08 17:03:00,
2013-02-08 12:08:00,22.0,20.0,29.88,North,0,5.0,6.0,97,0.00,,,0.00,TxWx,2013-02-08 17:08:00,
2013-02-08 12:13:00,23.0,21.0,29.87,North,0,5.0,5.0,96,0.00,,,0.00,TxWx,2013-02-08 17:13:00,
2013-02-08 12:18:00,24.0,22.0,29.87,NW,315,3.0,4.0,95,0.00,,,0.00,TxWx,2013-02-08 17:18:00,
2013-02-08 12:23:00,24.0,21.0,29.87,NW,315,3.0,5.0,93,0.00,,,0.00,TxWx,2013-02-08 17:23:00,
2013-02-08 12:29:00,24.0,21.0,29.87,NE,45,1.0,1.0,93,0.00,,,0.00,TxWx,2013-02-08 17:29:00,
2013-02-08 12:34:00,24.0,21.0,29.86,South,180,0.0,1.0,91,0.00,,,0.00,TxWx,2013-02-08 17:34:00,
2013-02-08 12:39:00,25.0,22.0,29.86,NNE,22,3.0,5.0,92,0.00,,,0.00,TxWx,2013-02-08 17:39:00,
2013-02-08 12:44:00,26.0,22.0,29.86,North,0,3.0,4.0,89,0.00,,,0.00,TxWx,2013-02-08 17:44:00,
2013-02-08 12:49:00,26.0,21.0,29.85,WNW,292,2.0,3.0,86,0.00,,,0.00,TxWx,2013-02-08 17:49:00,
2013-02-08 12:54:00,26.0,21.0,29.85,NNE,22,1.0,3.0,86,0.00,,,0.00,TxWx,2013-02-08 17:54:00,
2013-02-08 12:59:00,26.0,21.0,29.85,North,0,1.0,1.0,85,0.00,,,0.00,TxWx,2013-02-08 17:59:00,
2013-02-08 13:04:00,27.0,22.0,29.85,NE,45,2.0,2.0,84,0.00,,,0.00,TxWx,2013-02-08 18:04:00,
2013-02-08 13:09:00,27.0,22.0,29.84,NE,45,2.0,4.0,83,0.00,,,0.00,TxWx,2013-02-08 18:09:00,
2013-02-08 13:14:00,27.0,21.0,29.84,NNE,22,6.0,6.0,82,0.00,,,0.00,TxWx,2013-02-08 18:14:00,
2013-02-08 13:19:00,27.0,21.0,29.83,NNE,22,7.0,7.0,81,0.00,,,0.00,TxWx,2013-02-08 18:19:00,
2013-02-08 13:24:00,27.0,21.0,29.82,North,0,5.0,6.0,81,0.00,,,0.00,TxWx,2013-02-08 18:24:00,
2013-02-08 13:29:00,28.0,21.0,29.82,NE,45,13.0,13.0,80,0.00,,,0.00,TxWx,2013-02-08 18:29:00,
2013-02-08 13:35:00,27.0,20.0,29.82,ENE,67,5.0,7.0,79,0.00,,,0.00,TxWx,2013-02-08 18:35:00,
2013-02-08 13:40:00,28.0,21.0,29.81,NNW,337,6.0,10.0,79,0.00,,,0.00,TxWx,2013-02-08 18:40:00,
2013-02-08 13:45:00,28.0,21.0,29.81,North,0,8.0,14.0,78,0.00,,,0.00,TxWx,2013-02-08 18:45:00,
2013-02-08 13:50:00,28.0,21.0,29.81,ENE,67,7.0,10.0,77,0.00,,,0.00,TxWx,2013-02-08 18:50:00,
2013-02-08 13:55:00,28.0,21.0,29.80,ENE,67,12.0,16.0,77,0.00,,,0.00,TxWx,2013-02-08 18:55:00,
2013-02-08 13:59:00,18.0,18.0,29.66,NW,315,11.0,16.0,100,0.00,,,0.00,TxWx,2013-02-08 18:59:00,
2013-02-08 14:00:00,28.0,20.0,29.79,NE,45,11.0,18.0,76,0.00,,,0.00,TxWx,2013-02-08 19:00:00,
2013-02-08 14:01:00,18.0,18.0,29.66,NW,315,10.0,13.0,100,0.00,,,0.00,TxWx,2013-02-08 19:01:00,
2013-02-08 14:02:00,18.0,18.0,29.66,NW,315,11.0,11.0,100,0.00,,,0.00,TxWx,2013-02-08 19:02:00,
2013-02-08 14:03:00,18.0,18.0,29.66,WNW,292,7.0,7.0,100,0.00,,,0.00,TxWx,2013-02-08 19:03:00,
2013-02-08 14:04:00,18.0,18.0,29.66,WNW,292,8.0,9.0,100,0.00,,,0.00,TxWx,2013-02-08 19:04:00,
2013-02-08 14:05:00,28.0,20.0,29.79,NE,45,9.0,13.0,76,0.00,,,0.00,TxWx,2013-02-08 19:05:00,
2013-02-08 14:06:00,18.0,18.0,29.66,NNW,337,13.0,15.0,100,0.00,,,0.00,TxWx,2013-02-08 19:06:00,
2013-02-08 14:07:00,18.0,18.0,29.66,West,270,11.0,11.0,100,0.00,,,0.00,TxWx,2013-02-08 19:07:00,
2013-02-08 14:10:00,28.0,20.0,29.79,ENE,67,14.0,16.0,76,0.00,,,0.00,TxWx,2013-02-08 19:10:00,
2013-02-08 14:14:00,18.0,18.0,29.66,NW,315,8.0,8.0,100,0.00,,,0.00,TxWx,2013-02-08 19:14:00,
2013-02-08 14:15:00,28.0,20.0,29.79,ENE,67,12.0,12.0,76,0.00,,,0.00,TxWx,2013-02-08 19:15:00,
2013-02-08 14:16:00,18.0,18.0,29.66,WNW,292,8.0,10.0,100,0.00,,,0.00,TxWx,2013-02-08 19:16:00,
2013-02-08 14:17:00,18.0,18.0,29.67,WNW,292,6.0,8.0,100,0.00,,,0.00,TxWx,2013-02-08 19:17:00,
2013-02-08 14:18:00,18.0,18.0,29.66,NNW,337,10.0,10.0,100,0.00,,,0.00,TxWx,2013-02-08 19:18:00,
2013-02-08 14:19:00,18.0,18.0,29.66,NW,315,7.0,7.0,100,0.00,,,0.00,TxWx,2013-02-08 19:19:00,
2013-02-08 14:20:00,28.0,20.0,29.78,East,90,5.0,6.0,75,0.00,,,0.00,TxWx,2013-02-08 19:20:00,
2013-02-08 14:24:00,18.0,18.0,29.66,NW,315,6.0,11.0,100,0.00,,,0.00,TxWx,2013-02-08 19:24:00,
2013-02-08 14:25:00,28.0,20.0,29.78,ENE,67,5.0,6.0,75,0.00,,,0.00,TxWx,2013-02-08 19:25:00,
2013-02-08 14:26:00,18.0,18.0,29.66,NNW,337,6.0,13.0,100,0.00,,,0.00,TxWx,2013-02-08 19:26:00,
2013-02-08 14:30:00,28.0,20.0,29.78,NE,45,6.0,7.0,75,0.00,,,0.00,TxWx,2013-02-08 19:30:00,
2013-02-08 14:36:00,28.0,20.0,29.77,ENE,67,9.0,9.0,75,0.00,,,0.00,TxWx,2013-02-08 19:36:00,
2013-02-08 14:41:00,29.0,21.0,29.77,NE,45,6.0,9.0,75,0.00,,,0.00,TxWx,2013-02-08 19:41:00,
2013-02-08 14:46:00,29.0,21.0,29.77,NE,45,6.0,6.0,74,0.00,,,0.00,TxWx,2013-02-08 19:46:00,
2013-02-08 14:47:00,18.0,18.0,29.67,NW,315,14.0,16.0,100,0.00,,,0.00,TxWx,2013-02-08 19:47:00,
2013-02-08 14:48:00,18.0,18.0,29.67,NW,315,13.0,16.0,100,0.00,,,0.00,TxWx,2013-02-08 19:48:00,
2013-02-08 14:51:00,29.0,21.0,29.77,ESE,112,1.0,1.0,74,0.00,,,0.00,TxWx,2013-02-08 19:51:00,
2013-02-08 14:56:00,29.0,21.0,29.77,ENE,67,6.0,6.0,74,0.00,,,0.00,TxWx,2013-02-08 19:56:00,
2013-02-08 15:01:00,29.0,21.0,29.77,NE,45,6.0,6.0,74,0.00,,,0.00,TxWx,2013-02-08 20:01:00,
2013-02-08 15:06:00,29.0,21.0,29.77,NE,45,8.0,10.0,74,0.00,,,0.00,TxWx,2013-02-08 20:06:00,
2013-02-08 15:10:00,18.0,18.0,29.67,WNW,292,6.0,8.0,100,0.00,,,0.00,TxWx,2013-02-08 20:10:00,
2013-02-08 15:11:00,29.0,21.0,29.76,East,90,7.0,9.0,74,0.00,,,0.00,TxWx,2013-02-08 20:11:00,
2013-02-08 15:16:00,29.0,21.0,29.76,NE,45,8.0,9.0,74,0.00,,,0.00,TxWx,2013-02-08 20:16:00,
2013-02-08 15:21:00,29.0,21.0,29.76,NNE,22,3.0,5.0,75,0.00,,,0.00,TxWx,2013-02-08 20:21:00,
2013-02-08 15:26:00,29.0,21.0,29.75,NE,45,13.0,17.0,75,0.00,,,0.00,TxWx,2013-02-08 20:26:00,
2013-02-08 15:32:00,29.0,21.0,29.75,NNE,22,7.0,8.0,75,0.00,,,0.00,TxWx,2013-02-08 20:32:00,
2013-02-08 15:37:00,29.0,21.0,29.74,ENE,67,3.0,4.0,75,0.00,,,0.00,TxWx,2013-02-08 20:37:00,
2013-02-08 15:42:00,29.0,21.0,29.74,ENE,67,2.0,3.0,75,0.00,,,0.00,TxWx,2013-02-08 20:42:00,
2013-02-08 15:47:00,29.0,21.0,29.74,ENE,67,4.0,4.0,75,0.00,,,0.00,TxWx,2013-02-08 20:47:00,
2013-02-08 15:52:00,29.0,21.0,29.74,NNE,22,9.0,10.0,76,0.00,,,0.00,TxWx,2013-02-08 20:52:00,
2013-02-08 15:57:00,28.0,20.0,29.73,NE,45,5.0,7.0,76,0.00,,,0.00,TxWx,2013-02-08 20:57:00,
2013-02-08 16:02:00,28.0,20.0,29.73,SSW,202,2.0,3.0,76,0.00,,,0.00,TxWx,2013-02-08 21:02:00,
2013-02-08 16:07:00,28.0,20.0,29.73,ENE,67,10.0,10.0,76,0.00,,,0.00,TxWx,2013-02-08 21:07:00,
2013-02-08 16:12:00,28.0,20.0,29.73,ENE,67,10.0,10.0,76,0.00,,,0.00,TxWx,2013-02-08 21:12:00,
2013-02-08 16:17:00,28.0,20.0,29.72,East,90,15.0,16.0,76,0.00,,,0.00,TxWx,2013-02-08 21:17:00,
2013-02-08 16:22:00,27.0,20.0,29.72,ENE,67,3.0,5.0,77,0.00,,,0.00,TxWx,2013-02-08 21:22:00,
2013-02-08 16:28:00,28.0,21.0,29.72,ENE,67,5.0,5.0,78,0.00,,,0.00,TxWx,2013-02-08 21:28:00,
2013-02-08 16:33:00,27.0,20.0,29.72,NNE,22,4.0,5.0,79,0.00,,,0.00,TxWx,2013-02-08 21:33:00,
2013-02-08 16:38:00,27.0,20.0,29.72,North,0,5.0,7.0,79,0.00,,,0.00,TxWx,2013-02-08 21:38:00,
2013-02-08 16:43:00,27.0,20.0,29.72,NNW,337,3.0,3.0,79,0.00,,,0.00,TxWx,2013-02-08 21:43:00,
2013-02-08 16:48:00,26.0,19.0,29.72,NNW,337,8.0,8.0,79,0.00,,,0.00,TxWx,2013-02-08 21:48:00,
2013-02-08 16:53:00,26.0,20.0,29.72,NNW,337,6.0,7.0,80,0.00,,,0.00,TxWx,2013-02-08 21:53:00,
2013-02-08 16:58:00,26.0,20.0,29.72,NNE,22,5.0,6.0,81,0.00,,,0.00,TxWx,2013-02-08 21:58:00,
2013-02-08 17:03:00,26.0,20.0,29.72,NNE,22,6.0,6.0,81,0.00,,,0.00,TxWx,2013-02-08 22:03:00,
2013-02-08 17:08:00,26.0,20.0,29.72,NE,45,10.0,10.0,82,0.00,,,0.00,TxWx,2013-02-08 22:08:00,
2013-02-08 17:13:00,26.0,20.0,29.71,NNW,337,9.0,10.0,81,0.00,,,0.00,TxWx,2013-02-08 22:13:00,
2013-02-08 17:18:00,25.0,19.0,29.71,NE,45,6.0,9.0,81,0.00,,,0.00,TxWx,2013-02-08 22:18:00,
2013-02-08 17:24:00,25.0,19.0,29.71,NNE,22,9.0,12.0,82,0.00,,,0.00,TxWx,2013-02-08 22:24:00,
2013-02-08 17:29:00,24.0,18.0,29.71,NNW,337,9.0,13.0,82,0.00,,,0.00,TxWx,2013-02-08 22:29:00,
2013-02-08 17:34:00,25.0,19.0,29.71,NNE,22,6.0,6.0,83,0.00,,,0.00,TxWx,2013-02-08 22:34:00,
2013-02-08 17:39:00,24.0,18.0,29.71,NE,45,9.0,11.0,82,0.00,,,0.00,TxWx,2013-02-08 22:39:00,
2013-02-08 17:44:00,24.0,18.0,29.71,NE,45,13.0,16.0,83,0.00,,,0.00,TxWx,2013-02-08 22:44:00,
2013-02-08 17:49:00,24.0,19.0,29.71,North,0,8.0,10.0,84,0.00,,,0.00,TxWx,2013-02-08 22:49:00,
2013-02-08 17:54:00,24.0,19.0,29.71,NNE,22,11.0,14.0,85,0.00,,,0.00,TxWx,2013-02-08 22:54:00,
2013-02-08 17:59:00,24.0,18.0,29.71,NW,315,6.0,8.0,86,0.00,,,0.00,TxWx,2013-02-08 22:59:00,
2013-02-08 18:04:00,23.0,19.0,29.71,NE,45,6.0,8.0,87,0.00,,,0.00,TxWx,2013-02-08 23:04:00,
2013-02-08 18:09:00,23.0,19.0,29.71,NE,45,9.0,10.0,88,0.00,,,0.00,TxWx,2013-02-08 23:09:00,
2013-02-08 18:14:00,23.0,19.0,29.71,NNE,22,7.0,7.0,89,0.00,,,0.00,TxWx,2013-02-08 23:14:00,
2013-02-08 18:20:00,23.0,20.0,29.70,NE,45,6.0,7.0,91,0.00,,,0.00,TxWx,2013-02-08 23:20:00,
2013-02-08 18:25:00,22.0,19.0,29.70,NNE,22,8.0,8.0,91,0.00,,,0.00,TxWx,2013-02-08 23:25:00,
2013-02-08 18:30:00,22.0,19.0,29.70,NNE,22,8.0,9.0,92,0.00,,,0.00,TxWx,2013-02-08 23:30:00,
2013-02-08 18:35:00,22.0,19.0,29.70,NNW,337,4.0,4.0,93,0.00,,,0.00,TxWx,2013-02-08 23:35:00,
2013-02-08 18:40:00,22.0,19.0,29.70,North,0,13.0,14.0,94,0.00,,,0.00,TxWx,2013-02-08 23:40:00,
2013-02-08 18:45:00,21.0,19.0,29.70,North,0,5.0,9.0,95,0.00,,,0.00,TxWx,2013-02-08 23:45:00,
2013-02-08 18:50:00,22.0,20.0,29.70,North,0,10.0,10.0,95,0.00,,,0.00,TxWx,2013-02-08 23:50:00,
2013-02-08 18:55:00,21.0,19.0,29.70,NNE,22,4.0,8.0,96,0.00,,,0.00,TxWx,2013-02-08 23:55:00,
2013-02-08 19:00:00,21.0,19.0,29.70,NNW,337,8.0,9.0,96,0.00,,,0.00,TxWx,2013-02-09 00:00:00,
2013-02-08 19:05:00,21.0,19.0,29.69,East,90,3.0,7.0,97,0.00,,,0.00,TxWx,2013-02-09 00:05:00,
2013-02-08 19:10:00,21.0,19.0,29.69,NW,315,5.0,6.0,97,0.00,,,0.00,TxWx,2013-02-09 00:10:00,
2013-02-08 19:15:00,21.0,19.0,29.69,North,0,8.0,9.0,98,0.00,,,0.00,TxWx,2013-02-09 00:15:00,
2013-02-08 19:21:00,21.0,20.0,29.69,NE,45,4.0,4.0,98,0.00,,,0.00,TxWx,2013-02-09 00:21:00,
2013-02-08 19:26:00,21.0,20.0,29.69,NW,315,3.0,4.0,98,0.00,,,0.00,TxWx,2013-02-09 00:26:00,
2013-02-08 19:31:00,21.0,20.0,29.68,NNW,337,5.0,6.0,98,0.00,,,0.00,TxWx,2013-02-09 00:31:00,
2013-02-08 19:36:00,21.0,20.0,29.68,NNW,337,3.0,4.0,99,0.00,,,0.00,TxWx,2013-02-09 00:36:00,
2013-02-08 19:41:00,21.0,20.0,29.68,NNW,337,5.0,7.0,99,0.00,,,0.00,TxWx,2013-02-09 00:41:00,
2013-02-08 19:46:00,21.0,20.0,29.68,NNW,337,3.0,5.0,99,0.00,,,0.00,TxWx,2013-02-09 00:46:00,
2013-02-08 19:51:00,21.0,20.0,29.67,NE,45,3.0,3.0,99,0.00,,,0.00,TxWx,2013-02-09 00:51:00,
2013-02-08 19:56:00,21.0,20.0,29.67,NNW,337,5.0,5.0,99,0.00,,,0.00,TxWx,2013-02-09 00:56:00,
2013-02-08 20:01:00,21.0,21.0,29.67,North,0,5.0,5.0,100,0.00,,,0.00,TxWx,2013-02-09 01:01:00,
2013-02-08 20:06:00,20.0,20.0,29.67,NW,315,8.0,9.0,100,0.00,,,0.00,TxWx,2013-02-09 01:06:00,
2013-02-08 20:11:00,21.0,21.0,29.67,NW,315,4.0,5.0,100,0.00,,,0.00,TxWx,2013-02-09 01:11:00,
2013-02-08 20:16:00,20.0,20.0,29.67,NW,315,3.0,3.0,100,0.00,,,0.00,TxWx,2013-02-09 01:16:00,
2013-02-08 20:21:00,21.0,21.0,29.67,NNW,337,8.0,10.0,100,0.00,,,0.00,TxWx,2013-02-09 01:21:00,
2013-02-08 20:27:00,20.0,20.0,29.67,NNE,22,10.0,10.0,100,0.00,,,0.00,TxWx,2013-02-09 01:27:00,
2013-02-08 20:32:00,20.0,20.0,29.67,North,0,5.0,9.0,100,0.00,,,0.00,TxWx,2013-02-09 01:32:00,
2013-02-08 20:37:00,20.0,20.0,29.67,NNW,337,5.0,6.0,100,0.00,,,0.00,TxWx,2013-02-09 01:37:00,
2013-02-08 20:42:00,20.0,20.0,29.66,NW,315,5.0,5.0,100,0.00,,,0.00,TxWx,2013-02-09 01:42:00,
2013-02-08 20:47:00,20.0,20.0,29.66,East,90,2.0,2.0,100,0.00,,,0.00,TxWx,2013-02-09 01:47:00,
2013-02-08 20:52:00,20.0,20.0,29.66,WNW,292,4.0,6.0,100,0.00,,,0.00,TxWx,2013-02-09 01:52:00,
2013-02-08 20:57:00,20.0,20.0,29.66,NW,315,5.0,5.0,100,0.00,,,0.00,TxWx,2013-02-09 01:57:00,
2013-02-08 21:02:00,20.0,20.0,29.66,NNW,337,4.0,6.0,100,0.00,,,0.00,TxWx,2013-02-09 02:02:00,
2013-02-08 21:07:00,20.0,20.0,29.66,WNW,292,6.0,9.0,100,0.00,,,0.00,TxWx,2013-02-09 02:07:00,
2013-02-08 21:12:00,20.0,20.0,29.66,North,0,5.0,6.0,100,0.00,,,0.00,TxWx,2013-02-09 02:12:00,
2013-02-08 21:17:00,20.0,20.0,29.65,NW,315,6.0,6.0,100,0.00,,,0.00,TxWx,2013-02-09 02:17:00,
2013-02-08 21:22:00,20.0,20.0,29.65,NNW,337,7.0,10.0,100,0.00,,,0.00,TxWx,2013-02-09 02:22:00,
2013-02-08 21:27:00,19.0,19.0,29.65,NW,315,8.0,11.0,100,0.00,,,0.00,TxWx,2013-02-09 02:27:00,
2013-02-08 21:33:00,19.0,20.0,29.65,WNW,292,5.0,6.0,100,0.00,,,0.00,TxWx,2013-02-09 02:33:00,
2013-02-08 21:38:00,20.0,20.0,29.65,NW,315,7.0,13.0,100,0.00,,,0.00,TxWx,2013-02-09 02:38:00,
2013-02-08 21:43:00,19.0,19.0,29.65,NW,315,12.0,13.0,100,0.00,,,0.00,TxWx,2013-02-09 02:43:00,
2013-02-08 21:48:00,19.0,19.0,29.65,NW,315,9.0,9.0,100,0.00,,,0.00,TxWx,2013-02-09 02:48:00,
2013-02-08 21:53:00,20.0,20.0,29.65,West,270,6.0,7.0,100,0.00,,,0.00,TxWx,2013-02-09 02:53:00,
2013-02-08 21:58:00,19.0,19.0,29.64,NNW,337,10.0,11.0,100,0.00,,,0.00,TxWx,2013-02-09 02:58:00,
2013-02-08 22:03:00,19.0,19.0,29.64,WNW,292,10.0,12.0,100,0.00,,,0.00,TxWx,2013-02-09 03:03:00,
2013-02-08 22:08:00,19.0,19.0,29.64,WNW,292,8.0,8.0,100,0.00,,,0.00,TxWx,2013-02-09 03:08:00,
2013-02-08 22:13:00,19.0,19.0,29.64,NW,315,12.0,13.0,100,0.00,,,0.00,TxWx,2013-02-09 03:13:00,
2013-02-08 22:18:00,19.0,19.0,29.64,West,270,8.0,11.0,100,0.00,,,0.00,TxWx,2013-02-09 03:18:00,
2013-02-08 22:23:00,18.0,18.0,29.64,NW,315,11.0,11.0,100,0.00,,,0.00,TxWx,2013-02-09 03:23:00,
2013-02-08 22:28:00,18.0,18.0,29.64,West,270,7.0,9.0,100,0.00,,,0.00,TxWx,2013-02-09 03:28:00,
2013-02-08 22:33:00,18.0,18.0,29.64,NW,315,9.0,16.0,100,0.00,,,0.00,TxWx,2013-02-09 03:33:00,
2013-02-08 22:38:00,18.0,18.0,29.64,NNW,337,13.0,15.0,100,0.00,,,0.00,TxWx,2013-02-09 03:38:00,
2013-02-08 22:43:00,18.0,18.0,29.64,WNW,292,8.0,8.0,100,0.00,,,0.00,TxWx,2013-02-09 03:43:00,
2013-02-08 22:49:00,18.0,18.0,29.64,NW,315,14.0,15.0,100,0.00,,,0.00,TxWx,2013-02-09 03:49:00,
2013-02-08 22:54:00,18.0,18.0,29.64,NW,315,13.0,13.0,100,0.00,,,0.00,TxWx,2013-02-09 03:54:00,
2013-02-08 22:59:00,18.0,18.0,29.63,NW,315,13.0,13.0,100,0.00,,,0.00,TxWx,2013-02-09 03:59:00,
2013-02-08 23:04:00,18.0,18.0,29.64,NNW,337,10.0,13.0,100,0.00,,,0.00,TxWx,2013-02-09 04:04:00,
2013-02-08 23:09:00,18.0,18.0,29.63,WNW,292,9.0,14.0,100,0.00,,,0.00,TxWx,2013-02-09 04:09:00,
2013-02-08 23:14:00,18.0,18.0,29.63,NW,315,8.0,11.0,100,0.00,,,0.00,TxWx,2013-02-09 04:14:00,
2013-02-08 23:19:00,18.0,18.0,29.63,NNW,337,7.0,9.0,100,0.00,,,0.00,TxWx,2013-02-09 04:19:00,
2013-02-08 23:24:00,18.0,18.0,29.63,WSW,247,11.0,17.0,100,0.00,,,0.00,TxWx,2013-02-09 04:24:00,
2013-02-08 23:29:00,18.0,18.0,29.63,NW,315,11.0,12.0,100,0.00,,,0.00,TxWx,2013-02-09 04:29:00,
2013-02-08 23:34:00,18.0,18.0,29.64,North,0,5.0,10.0,100,0.00,,,0.00,TxWx,2013-02-09 04:34:00,
2013-02-08 23:39:00,18.0,18.0,29.64,WNW,292,15.0,15.0,100,0.00,,,0.00,TxWx,2013-02-09 04:39:00,
2013-02-08 23:44:00,18.0,18.0,29.65,WNW,292,8.0,16.0,100,0.00,,,0.00,TxWx,2013-02-09 04:44:00,
2013-02-08 23:49:00,18.0,18.0,29.65,NNW,337,12.0,14.0,100,0.00,,,0.00,TxWx,2013-02-09 04:49:00,
2013-02-08 23:55:00,18.0,18.0,29.66,West,270,8.0,13.0,100,0.00,,,0.00,TxWx,2013-02-09 04:55:00,